createdAt,value
2022-10-25T00:00:15.387Z,8.35
2022-10-25T00:01:18.405Z,7.30
2022-10-25T00:02:17.734Z,6.93
2022-10-25T00:03:14.519Z,6.53
2022-10-25T00:04:11.298Z,6.18
2022-10-25T00:05:11.679Z,6.10
2022-10-25T00:06:12.354Z,6.10
2022-10-25T00:07:09.379Z,5.22
2022-10-25T00:08:06.477Z,6.88
2022-10-25T00:09:03.469Z,8.10
2022-10-25T00:10:00.047Z,7.07
2022-10-25T00:10:56.639Z,7.60
2022-10-25T00:11:53.238Z,6.55
2022-10-25T00:12:50.174Z,7.05
2022-10-25T00:13:50.031Z,7.45
2022-10-25T00:14:46.805Z,6.50
2022-10-25T00:15:43.549Z,6.82
2022-10-25T00:16:40.134Z,6.70
2022-10-25T00:17:36.749Z,6.03
2022-10-25T00:18:33.610Z,7.03
2022-10-25T00:19:30.163Z,7.32
2022-10-25T00:20:26.848Z,6.00
2022-10-25T00:21:23.959Z,6.78
2022-10-25T00:22:20.653Z,5.53
2022-10-25T00:23:17.252Z,6.50
2022-10-25T00:24:14.725Z,7.38
2022-10-25T00:25:11.695Z,7.80
2022-10-25T00:26:10.053Z,6.50
2022-10-25T00:27:06.742Z,6.38
2022-10-25T00:28:03.326Z,6.30
2022-10-25T00:28:59.976Z,6.68
2022-10-25T00:29:56.582Z,6.25
2022-10-25T00:31:00.784Z,6.18
2022-10-25T00:31:57.351Z,6.25
2022-10-25T00:32:54.538Z,6.38
2022-10-25T00:33:51.722Z,6.10
2022-10-25T00:34:48.438Z,7.57
2022-10-25T00:35:44.987Z,8.38
2022-10-25T00:36:41.535Z,7.80
2022-10-25T00:37:38.117Z,8.00
2022-10-25T00:38:35.471Z,8.98
2022-10-25T00:39:32.014Z,7.70
2022-10-25T00:40:28.597Z,8.13
2022-10-25T00:41:29.181Z,6.82
2022-10-25T00:42:27.540Z,6.65
2022-10-25T00:43:37.937Z,7.40
2022-10-25T00:44:40.502Z,7.10
2022-10-25T00:45:37.729Z,7.90
2022-10-25T00:46:34.347Z,7.07
2022-10-25T00:47:39.868Z,6.30
2022-10-25T00:48:36.707Z,6.25
2022-10-25T00:49:34.506Z,6.05
2022-10-25T00:50:50.808Z,7.38
2022-10-25T00:52:07.466Z,6.82
2022-10-25T00:53:13.056Z,6.75
2022-10-25T00:54:13.058Z,6.70
2022-10-25T00:55:11.035Z,7.35
2022-10-25T00:56:19.714Z,6.30
2022-10-25T00:57:21.784Z,6.60
2022-10-25T00:58:22.365Z,6.22
2022-10-25T00:59:24.534Z,6.70
2022-10-25T01:00:22.074Z,6.97
2022-10-25T01:01:19.108Z,6.70
2022-10-25T01:02:18.342Z,5.88
2022-10-25T01:03:17.802Z,6.03
2022-10-25T01:04:17.336Z,6.97
2022-10-25T01:05:15.404Z,6.10
2022-10-25T01:06:23.358Z,7.68
2022-10-25T01:07:20.027Z,6.38
2022-10-25T01:08:20.065Z,6.35
2022-10-25T01:09:23.857Z,6.40
2022-10-25T01:10:20.555Z,5.70
2022-10-25T01:12:18.904Z,6.18
2022-10-25T01:13:15.756Z,6.47
2022-10-25T01:14:15.310Z,5.95
2022-10-25T01:15:12.432Z,6.03
2022-10-25T01:16:11.757Z,6.75
2022-10-25T01:17:20.021Z,6.45
2022-10-25T01:18:27.784Z,6.50
2022-10-25T01:19:36.498Z,7.15
2022-10-25T01:21:12.107Z,6.15
2022-10-25T01:22:35.062Z,5.57
2022-10-25T01:23:34.429Z,7.07
2022-10-25T01:24:49.020Z,7.65
2022-10-25T01:26:03.803Z,8.07
2022-10-25T01:27:29.258Z,6.70
2022-10-25T01:29:03.661Z,6.22
2022-10-25T01:31:40.820Z,6.97
2022-10-25T01:32:49.146Z,6.43
2022-10-25T01:34:03.971Z,5.43
2022-10-25T01:35:16.288Z,6.45
2022-10-25T01:36:37.077Z,7.13
2022-10-25T01:37:51.997Z,6.80
2022-10-25T01:38:57.696Z,7.00
2022-10-25T01:40:00.544Z,6.72
2022-10-25T01:41:04.237Z,7.18
2022-10-25T01:42:14.219Z,6.32
2022-10-25T01:43:17.431Z,6.55
2022-10-25T01:44:28.937Z,6.63
2022-10-25T01:45:34.952Z,7.55
2022-10-25T01:46:40.722Z,7.78
2022-10-25T01:47:58.808Z,8.52
2022-10-25T01:49:13.274Z,8.15
2022-10-25T01:50:31.663Z,7.38
2022-10-25T01:51:31.503Z,6.88
2022-10-25T01:52:28.454Z,6.47
2022-10-25T01:53:25.049Z,7.65
2022-10-25T01:54:27.548Z,7.25
2022-10-25T01:57:11.699Z,6.30
2022-10-25T01:58:17.540Z,5.97
2022-10-25T01:59:38.862Z,6.65
2022-10-25T02:00:48.206Z,5.00
2022-10-25T02:02:10.653Z,6.00
2022-10-25T02:03:31.151Z,5.85
2022-10-25T02:04:54.982Z,6.75
2022-10-25T02:06:29.908Z,6.25
2022-10-25T02:07:35.475Z,7.75
2022-10-25T02:08:46.845Z,7.78
2022-10-25T02:09:52.486Z,7.38
2022-10-25T02:10:59.521Z,6.25
2022-10-25T02:11:59.447Z,7.45
2022-10-25T02:13:18.268Z,7.40
2022-10-25T02:14:27.074Z,6.57
2022-10-25T02:15:50.971Z,7.72
2022-10-25T02:16:56.545Z,7.15
2022-10-25T02:17:59.181Z,6.70
2022-10-25T02:19:03.068Z,8.00
2022-10-25T02:20:02.781Z,6.85
2022-10-25T02:21:01.638Z,6.40
2022-10-25T02:22:01.374Z,8.30
2022-10-25T02:23:01.154Z,8.30
2022-10-25T02:24:00.156Z,8.73
2022-10-25T02:24:58.205Z,8.63
2022-10-25T02:25:55.499Z,9.85
2022-10-25T02:26:54.443Z,8.82
2022-10-25T02:27:53.843Z,8.95
2022-10-25T02:28:51.366Z,8.27
2022-10-25T02:29:49.348Z,8.82
2022-10-25T02:30:45.944Z,9.15
2022-10-25T02:31:43.902Z,8.73
2022-10-25T02:32:40.521Z,9.10
2022-10-25T02:33:37.998Z,8.27
2022-10-25T02:34:34.670Z,6.85
2022-10-25T02:35:31.432Z,7.15
2022-10-25T02:36:28.009Z,9.75
2022-10-25T02:37:24.649Z,9.13
2022-10-25T02:38:21.248Z,9.10
2022-10-25T02:39:19.837Z,9.65
2022-10-25T02:40:16.622Z,10.07
2022-10-25T02:41:13.825Z,6.93
2022-10-25T02:42:10.424Z,7.65
2022-10-25T02:43:06.989Z,7.95
2022-10-25T02:44:03.748Z,8.85
2022-10-25T02:45:00.325Z,7.32
2022-10-25T02:45:56.883Z,6.90
2022-10-25T02:46:53.547Z,6.72
2022-10-25T02:47:50.236Z,8.25
2022-10-25T02:48:47.736Z,8.48
2022-10-25T02:49:44.396Z,8.38
2022-10-25T02:50:40.942Z,7.60
2022-10-25T02:51:37.860Z,9.65
2022-10-25T02:52:34.522Z,7.97
2022-10-25T02:53:31.244Z,8.95
2022-10-25T02:54:27.859Z,8.00
2022-10-25T02:55:24.457Z,7.15
2022-10-25T02:56:22.430Z,7.65
2022-10-25T02:57:19.002Z,8.57
2022-10-25T02:58:15.562Z,8.88
2022-10-25T02:59:12.944Z,8.68
2022-10-25T03:00:10.362Z,8.50
2022-10-25T03:01:07.907Z,9.43
2022-10-25T03:02:04.567Z,8.57
2022-10-25T03:03:01.110Z,8.40
2022-10-25T03:03:57.795Z,7.82
2022-10-25T03:04:54.365Z,6.82
2022-10-25T03:05:51.568Z,5.97
2022-10-25T03:06:48.193Z,7.10
2022-10-25T03:07:44.786Z,7.13
2022-10-25T03:08:42.924Z,6.30
2022-10-25T03:09:39.537Z,7.57
2022-10-25T03:10:38.992Z,7.03
2022-10-25T03:11:35.566Z,6.57
2022-10-25T03:12:32.150Z,7.05
2022-10-25T03:13:28.712Z,5.47
2022-10-25T03:14:25.702Z,6.03
2022-10-25T03:15:22.407Z,6.45
2022-10-25T03:16:18.995Z,6.20
2022-10-25T03:17:15.620Z,7.53
2022-10-25T03:18:13.438Z,6.30
2022-10-25T03:19:10.028Z,7.72
2022-10-25T03:20:07.330Z,7.53
2022-10-25T03:21:05.474Z,7.05
2022-10-25T03:22:02.013Z,6.38
2022-10-25T03:22:58.643Z,6.90
2022-10-25T03:23:55.261Z,8.68
2022-10-25T03:24:51.832Z,8.80
2022-10-25T03:25:55.935Z,7.75
2022-10-25T03:26:52.556Z,8.88
2022-10-25T03:27:49.287Z,8.50
2022-10-25T03:28:46.144Z,7.95
2022-10-25T03:29:42.750Z,7.07
2022-10-25T03:30:42.521Z,7.40
2022-10-25T03:31:40.087Z,7.93
2022-10-25T03:32:36.979Z,8.32
2022-10-25T03:33:33.613Z,7.25
2022-10-25T03:34:30.169Z,6.80
2022-10-25T03:35:26.885Z,7.82
2022-10-25T03:36:23.504Z,5.45
2022-10-25T03:37:20.047Z,9.32
2022-10-25T03:38:16.794Z,9.57
2022-10-25T03:39:13.498Z,7.72
2022-10-25T03:40:10.622Z,6.47
2022-10-25T03:41:07.281Z,7.88
2022-10-25T03:42:04.020Z,7.95
2022-10-25T03:43:00.647Z,6.22
2022-10-25T03:43:57.222Z,7.30
2022-10-25T03:44:53.984Z,7.63
2022-10-25T03:45:50.543Z,7.78
2022-10-25T03:46:47.178Z,8.90
2022-10-25T03:47:44.565Z,8.63
2022-10-25T03:48:41.500Z,7.72
2022-10-25T03:49:38.119Z,8.15
2022-10-25T03:50:36.089Z,7.65
2022-10-25T03:51:32.762Z,6.38
2022-10-25T03:52:29.340Z,7.85
2022-10-25T03:53:25.892Z,9.95
2022-10-25T03:54:24.413Z,8.27
2022-10-25T03:55:23.532Z,10.32
2022-10-25T03:56:20.147Z,8.20
2022-10-25T03:57:17.039Z,7.45
2022-10-25T03:58:13.782Z,8.98
2022-10-25T03:59:10.367Z,8.88
2022-10-25T04:00:07.642Z,8.13
2022-10-25T04:01:04.321Z,7.82
2022-10-25T04:02:01.549Z,8.75
2022-10-25T04:03:02.016Z,7.68
2022-10-25T04:03:59.168Z,7.05
2022-10-25T04:04:55.803Z,6.57
2022-10-25T04:05:52.372Z,9.02
2022-10-25T04:06:49.006Z,6.70
2022-10-25T04:07:45.944Z,6.90
2022-10-25T04:08:42.725Z,6.78
2022-10-25T04:09:39.289Z,8.15
2022-10-25T04:10:36.123Z,8.00
2022-10-25T04:11:32.819Z,8.02
2022-10-25T04:12:29.398Z,8.68
2022-10-25T04:13:25.984Z,6.75
2022-10-25T04:14:22.593Z,7.80
2022-10-25T04:15:19.480Z,6.90
2022-10-25T04:16:19.060Z,6.75
2022-10-25T04:17:15.912Z,8.02
2022-10-25T04:18:12.548Z,6.05
2022-10-25T04:19:09.154Z,6.50
2022-10-25T04:20:06.355Z,7.07
2022-10-25T04:21:03.723Z,6.68
2022-10-25T04:22:02.265Z,8.10
2022-10-25T04:22:58.831Z,6.18
2022-10-25T04:23:56.692Z,6.60
2022-10-25T04:24:54.859Z,6.38
2022-10-25T04:25:51.500Z,7.35
2022-10-25T04:26:48.762Z,7.10
2022-10-25T04:27:45.563Z,7.97
2022-10-25T04:28:42.272Z,7.55
2022-10-25T04:29:38.941Z,7.55
2022-10-25T04:30:38.073Z,7.72
2022-10-25T04:31:35.633Z,8.55
2022-10-25T04:32:32.202Z,7.07
2022-10-25T04:33:28.922Z,7.93
2022-10-25T04:34:25.489Z,8.25
2022-10-25T04:35:22.027Z,8.73
2022-10-25T04:36:18.867Z,7.63
2022-10-25T04:37:16.381Z,8.15
2022-10-25T04:38:12.940Z,6.63
2022-10-25T04:39:09.643Z,6.78
2022-10-25T04:40:07.077Z,8.43
2022-10-25T04:41:03.658Z,7.32
2022-10-25T04:42:00.261Z,7.57
2022-10-25T04:42:57.240Z,7.72
2022-10-25T04:43:53.886Z,7.07
2022-10-25T04:44:50.438Z,8.30
2022-10-25T04:45:47.015Z,6.72
2022-10-25T04:46:46.445Z,9.10
2022-10-25T04:47:45.340Z,7.45
2022-10-25T04:48:42.986Z,7.82
2022-10-25T04:49:39.626Z,6.13
2022-10-25T04:50:38.059Z,6.45
2022-10-25T04:51:34.755Z,6.13
2022-10-25T04:52:31.546Z,7.22
2022-10-25T04:53:28.262Z,7.53
2022-10-25T04:54:24.911Z,6.70
2022-10-25T04:55:21.507Z,6.80
2022-10-25T04:56:18.214Z,6.70
2022-10-25T04:57:14.763Z,7.30
2022-10-25T04:58:11.329Z,5.97
2022-10-25T04:59:09.382Z,6.05
2022-10-25T05:00:06.425Z,6.05
2022-10-25T05:01:08.735Z,7.00
2022-10-25T05:02:05.697Z,6.82
2022-10-25T05:03:02.333Z,6.78
2022-10-25T05:03:58.910Z,6.53
2022-10-25T05:04:55.501Z,7.05
2022-10-25T05:05:52.164Z,7.05
2022-10-25T05:06:48.715Z,6.35
2022-10-25T05:07:45.301Z,7.53
2022-10-25T05:08:46.995Z,7.25
2022-10-25T05:09:46.593Z,6.72
2022-10-25T05:10:44.415Z,6.60
2022-10-25T05:11:40.989Z,6.53
2022-10-25T05:12:38.053Z,6.28
2022-10-25T05:13:38.821Z,6.65
2022-10-25T05:14:35.442Z,6.35
2022-10-25T05:15:32.129Z,6.72
2022-10-25T05:16:28.820Z,6.40
2022-10-25T05:17:25.441Z,7.22
2022-10-25T05:18:22.222Z,6.78
2022-10-25T05:19:18.748Z,6.88
2022-10-25T05:20:15.430Z,6.50
2022-10-25T05:21:13.659Z,7.10
2022-10-25T05:22:10.457Z,7.93
2022-10-25T05:23:06.979Z,7.00
2022-10-25T05:24:04.139Z,7.80
2022-10-25T05:25:00.728Z,6.40
2022-10-25T05:26:21.195Z,7.90
2022-10-25T05:27:18.278Z,7.05
2022-10-25T05:28:14.899Z,7.32
2022-10-25T05:29:12.997Z,6.85
2022-10-25T05:30:10.738Z,7.00
2022-10-25T05:31:16.409Z,6.50
2022-10-25T05:32:13.260Z,8.18
2022-10-25T05:33:10.434Z,6.78
2022-10-25T05:34:07.678Z,7.53
2022-10-25T05:35:04.690Z,6.72
2022-10-25T05:36:03.214Z,6.93
2022-10-25T05:36:59.887Z,6.22
2022-10-25T05:37:56.452Z,6.10
2022-10-25T05:38:53.004Z,6.82
2022-10-25T05:39:49.778Z,6.25
2022-10-25T05:40:53.773Z,6.20
2022-10-25T05:41:50.914Z,7.07
2022-10-25T05:42:47.695Z,7.25
2022-10-25T05:43:45.579Z,7.05
2022-10-25T05:44:42.228Z,6.88
2022-10-25T05:45:38.833Z,7.53
2022-10-25T05:46:35.746Z,6.25
2022-10-25T05:47:32.310Z,7.53
2022-10-25T05:48:28.926Z,7.20
2022-10-25T05:49:25.495Z,7.95
2022-10-25T05:50:22.075Z,7.60
2022-10-25T05:51:34.700Z,7.35
2022-10-25T05:52:32.609Z,7.22
2022-10-25T05:53:29.210Z,7.10
2022-10-25T05:54:25.810Z,6.97
2022-10-25T05:55:22.366Z,7.20
2022-10-25T05:56:20.859Z,7.40
2022-10-25T05:57:17.501Z,6.70
2022-10-25T05:58:14.035Z,6.97
2022-10-25T05:59:14.735Z,7.10
2022-10-25T06:00:12.127Z,7.47
2022-10-25T06:01:16.953Z,6.63
2022-10-25T06:02:13.675Z,6.93
2022-10-25T06:03:10.309Z,7.15
2022-10-25T06:04:07.671Z,7.30
2022-10-25T06:05:04.472Z,6.93
2022-10-25T06:06:02.625Z,7.30
2022-10-25T06:06:59.262Z,6.38
2022-10-25T06:07:55.908Z,7.05
2022-10-25T06:08:57.532Z,6.35
2022-10-25T06:09:54.139Z,6.40
2022-10-25T06:10:50.734Z,7.20
2022-10-25T06:11:47.298Z,6.63
2022-10-25T06:12:43.923Z,6.57
2022-10-25T06:13:40.948Z,6.47
2022-10-25T06:14:37.503Z,5.85
2022-10-25T06:15:34.092Z,6.38
2022-10-25T06:16:31.097Z,6.68
2022-10-25T06:17:27.648Z,6.30
2022-10-25T06:18:24.741Z,6.07
2022-10-25T06:19:21.339Z,7.13
2022-10-25T06:20:17.896Z,6.80
2022-10-25T06:21:17.646Z,6.18
2022-10-25T06:22:14.195Z,6.95
2022-10-25T06:23:11.262Z,6.97
2022-10-25T06:24:09.318Z,6.38
2022-10-25T06:25:06.421Z,6.55
2022-10-25T06:26:06.825Z,5.97
2022-10-25T06:27:03.488Z,4.82
2022-10-25T06:28:00.059Z,6.32
2022-10-25T06:28:58.907Z,5.78
2022-10-25T06:29:55.456Z,5.88
2022-10-25T06:30:52.004Z,6.60
2022-10-25T06:31:49.689Z,5.53
2022-10-25T06:32:46.505Z,6.75
2022-10-25T06:33:43.850Z,5.55
2022-10-25T06:34:40.486Z,6.30
2022-10-25T06:35:37.068Z,6.93
2022-10-25T06:36:33.775Z,6.18
2022-10-25T06:37:30.544Z,6.68
2022-10-25T06:38:27.780Z,6.05
2022-10-25T06:39:24.360Z,5.82
2022-10-25T06:40:23.524Z,6.35
2022-10-25T06:41:22.896Z,7.03
2022-10-25T06:42:19.515Z,6.65
2022-10-25T06:43:16.137Z,6.85
2022-10-25T06:44:12.749Z,6.95
2022-10-25T06:45:09.736Z,6.82
2022-10-25T06:46:11.423Z,5.90
2022-10-25T06:47:23.155Z,6.68
2022-10-25T06:48:20.237Z,7.03
2022-10-25T06:49:16.788Z,6.30
2022-10-25T06:50:13.443Z,5.93
2022-10-25T06:51:10.002Z,7.07
2022-10-25T06:52:06.635Z,5.85
2022-10-25T06:53:03.198Z,6.22
2022-10-25T06:54:01.499Z,6.00
2022-10-25T06:54:58.077Z,6.80
2022-10-25T06:55:54.639Z,6.70
2022-10-25T06:56:51.185Z,7.03
2022-10-25T06:57:47.726Z,5.82
2022-10-25T06:58:44.785Z,5.30
2022-10-25T06:59:41.365Z,6.22
2022-10-25T07:00:37.935Z,6.18
2022-10-25T07:01:34.681Z,5.47
2022-10-25T07:02:31.281Z,6.00
2022-10-25T07:03:30.787Z,7.70
2022-10-25T07:04:27.327Z,6.50
2022-10-25T07:05:24.357Z,5.47
2022-10-25T07:06:29.527Z,6.47
2022-10-25T07:07:26.254Z,7.00
2022-10-25T07:08:23.145Z,6.43
2022-10-25T07:09:19.740Z,7.30
2022-10-25T07:10:16.514Z,7.00
2022-10-25T07:11:18.438Z,6.55
2022-10-25T07:12:14.991Z,6.75
2022-10-25T07:13:11.548Z,6.18
2022-10-25T07:14:09.324Z,7.15
2022-10-25T07:15:06.661Z,7.13
2022-10-25T07:16:05.050Z,7.60
2022-10-25T07:17:01.623Z,7.65
2022-10-25T07:17:58.235Z,7.13
2022-10-25T07:19:02.196Z,7.40
2022-10-25T07:19:58.743Z,7.40
2022-10-25T07:20:59.198Z,6.90
2022-10-25T07:21:55.802Z,7.78
2022-10-25T07:22:55.516Z,7.28
2022-10-25T07:23:55.708Z,8.27
2022-10-25T07:24:52.268Z,7.32
2022-10-25T07:25:48.818Z,7.63
2022-10-25T07:26:45.428Z,7.97
2022-10-25T07:27:42.058Z,6.90
2022-10-25T07:28:39.733Z,7.88
2022-10-25T07:29:36.297Z,9.40
2022-10-25T07:30:32.899Z,8.73
2022-10-25T07:31:32.002Z,9.10
2022-10-25T07:32:28.628Z,8.27
2022-10-25T07:33:25.176Z,8.40
2022-10-25T07:34:21.735Z,8.82
2022-10-25T07:35:18.302Z,9.05
2022-10-25T07:36:14.875Z,9.88
2022-10-25T07:37:11.481Z,9.43
2022-10-25T07:38:08.038Z,9.50
2022-10-25T07:39:04.719Z,9.50
2022-10-25T07:40:01.263Z,9.38
2022-10-25T07:40:58.883Z,9.77
2022-10-25T07:41:55.446Z,10.07
2022-10-25T07:42:52.106Z,9.02
2022-10-25T07:43:48.855Z,10.20
2022-10-25T07:45:42.940Z,10.15
2022-10-25T07:46:39.467Z,10.77
2022-10-25T07:47:36.082Z,9.85
2022-10-25T07:48:33.385Z,10.82
2022-10-25T07:49:29.912Z,10.77
2022-10-25T07:50:26.469Z,9.35
2022-10-25T07:51:23.179Z,10.75
2022-10-25T07:52:20.514Z,11.20
2022-10-25T07:53:17.320Z,10.73
2022-10-25T07:54:13.940Z,10.70
2022-10-25T07:55:10.496Z,9.88
2022-10-25T07:56:08.201Z,9.73
2022-10-25T07:57:06.424Z,10.40
2022-10-25T07:58:05.732Z,10.60
2022-10-25T07:59:02.331Z,11.50
2022-10-25T07:59:59.101Z,9.38
2022-10-25T08:01:04.097Z,10.88
2022-10-25T08:02:00.701Z,10.82
2022-10-25T08:02:57.558Z,13.27
2022-10-25T08:03:55.180Z,10.63
2022-10-25T08:04:54.214Z,11.20
2022-10-25T08:05:51.024Z,10.23
2022-10-25T08:06:47.608Z,11.00
2022-10-25T08:07:44.253Z,8.75
2022-10-25T08:08:41.024Z,10.95
2022-10-25T08:09:38.628Z,10.23
2022-10-25T08:10:35.478Z,10.15
2022-10-25T08:11:32.040Z,9.65
2022-10-25T08:12:28.588Z,10.63
2022-10-25T08:13:25.380Z,9.43
2022-10-25T08:15:19.595Z,10.20
2022-10-25T08:16:16.227Z,11.05
2022-10-25T08:17:12.815Z,10.32
2022-10-25T08:18:12.226Z,9.95
2022-10-25T08:19:08.810Z,10.30
2022-10-25T08:20:05.888Z,9.85
2022-10-25T08:21:04.435Z,9.00
2022-10-25T08:22:01.230Z,9.43
2022-10-25T08:22:59.206Z,10.50
2022-10-25T08:23:55.823Z,9.88
2022-10-25T08:24:52.467Z,9.57
2022-10-25T08:25:49.435Z,10.55
2022-10-25T08:26:46.270Z,9.27
2022-10-25T08:27:42.933Z,9.90
2022-10-25T08:28:39.691Z,8.80
2022-10-25T08:29:36.312Z,9.30
2022-10-25T08:30:32.932Z,9.35
2022-10-25T08:31:29.564Z,8.60
2022-10-25T08:32:26.193Z,9.32
2022-10-25T08:33:23.854Z,9.30
2022-10-25T08:34:20.506Z,9.40
2022-10-25T08:35:17.634Z,7.95
2022-10-25T08:36:14.262Z,10.38
2022-10-25T08:37:12.225Z,9.27
2022-10-25T08:38:08.778Z,10.10
2022-10-25T08:39:05.348Z,8.18
2022-10-25T08:40:02.103Z,7.60
2022-10-25T08:41:25.899Z,8.27
2022-10-25T08:42:40.937Z,9.18
2022-10-25T08:44:11.996Z,9.45
2022-10-25T08:45:22.987Z,8.38
2022-10-25T08:46:36.366Z,6.82
2022-10-25T08:47:40.756Z,7.30
2022-10-25T08:48:42.870Z,10.13
2022-10-25T08:50:11.037Z,7.93
2022-10-25T08:51:14.193Z,8.63
2022-10-25T08:52:22.019Z,9.07
2022-10-25T08:53:27.563Z,10.40
2022-10-25T08:54:29.351Z,7.80
2022-10-25T08:55:41.784Z,8.73
2022-10-25T08:57:10.690Z,7.13
2022-10-25T08:58:23.605Z,7.93
2022-10-25T08:59:26.017Z,8.80
2022-10-25T09:01:32.153Z,7.93
2022-10-25T09:02:41.700Z,8.80
2022-10-25T09:04:37.940Z,7.53
2022-10-25T09:05:39.115Z,8.23
2022-10-25T09:06:47.659Z,8.38
2022-10-25T09:08:03.921Z,7.75
2022-10-25T09:09:20.282Z,7.70
2022-10-25T09:10:29.125Z,8.07
2022-10-25T09:11:48.862Z,7.95
2022-10-25T09:13:00.283Z,7.32
2022-10-25T09:14:05.157Z,8.45
2022-10-25T09:15:13.923Z,7.82
2022-10-25T09:16:16.556Z,7.88
2022-10-25T09:17:23.501Z,8.77
2022-10-25T09:18:29.884Z,7.15
2022-10-25T09:19:35.374Z,8.00
2022-10-25T09:20:41.517Z,7.28
2022-10-25T09:21:49.990Z,8.60
2022-10-25T09:22:49.298Z,7.88
2022-10-25T09:24:01.692Z,7.15
2022-10-25T09:25:08.642Z,6.72
2022-10-25T09:26:22.090Z,8.10
2022-10-25T09:27:34.699Z,6.70
2022-10-25T09:29:00.243Z,6.53
2022-10-25T09:30:07.314Z,6.72
2022-10-25T09:31:05.383Z,7.78
2022-10-25T09:32:05.358Z,6.30
2022-10-25T09:33:09.363Z,6.45
2022-10-25T09:34:09.026Z,7.22
2022-10-25T09:35:12.475Z,7.60
2022-10-25T09:36:10.784Z,7.07
2022-10-25T09:37:34.692Z,7.40
2022-10-25T09:38:40.697Z,6.30
2022-10-25T09:39:44.951Z,7.22
2022-10-25T09:41:25.499Z,6.53
2022-10-25T09:42:27.852Z,5.90
2022-10-25T09:43:33.981Z,6.28
2022-10-25T09:44:36.451Z,6.45
2022-10-25T09:46:51.654Z,6.95
2022-10-25T09:47:54.845Z,6.45
2022-10-25T09:49:00.692Z,6.10
2022-10-25T09:50:37.338Z,7.70
2022-10-25T09:51:43.136Z,6.93
2022-10-25T09:52:51.863Z,5.90
2022-10-25T09:53:49.093Z,6.15
2022-10-25T09:55:09.269Z,6.40
2022-10-25T09:56:06.249Z,6.93
2022-10-25T09:57:03.703Z,6.53
2022-10-25T09:58:01.541Z,6.80
2022-10-25T09:59:01.286Z,5.85
2022-10-25T09:59:57.920Z,6.13
2022-10-25T10:00:57.657Z,5.80
2022-10-25T10:01:54.725Z,5.35
2022-10-25T10:02:51.610Z,7.82
2022-10-25T10:03:52.348Z,5.80
2022-10-25T10:04:52.398Z,5.57
2022-10-25T10:05:59.575Z,5.45
2022-10-25T10:07:02.621Z,5.85
2022-10-25T10:07:59.195Z,5.57
2022-10-25T10:09:07.783Z,6.78
2022-10-25T10:10:12.604Z,6.40
2022-10-25T10:11:15.985Z,5.72
2022-10-25T10:12:23.696Z,5.50
2022-10-25T10:13:38.895Z,5.55
2022-10-25T10:14:44.491Z,4.75
2022-10-25T10:15:57.148Z,3.92
2022-10-25T10:16:56.403Z,5.53
2022-10-25T10:18:21.777Z,5.97
2022-10-25T10:19:29.456Z,4.10
2022-10-25T10:20:26.144Z,4.47
2022-10-25T10:21:23.999Z,5.30
2022-10-25T10:22:21.254Z,4.35
2022-10-25T10:23:18.365Z,4.20
2022-10-25T10:24:23.229Z,4.10
2022-10-25T10:25:27.220Z,3.72
2022-10-25T10:26:51.596Z,5.63
2022-10-25T10:27:50.689Z,4.70
2022-10-25T10:29:07.801Z,4.55
2022-10-25T10:30:09.589Z,5.80
2022-10-25T10:31:08.212Z,3.78
2022-10-25T10:32:07.219Z,4.22
2022-10-25T10:33:04.695Z,4.93
2022-10-25T10:34:01.450Z,4.38
2022-10-25T10:34:58.794Z,5.80
2022-10-25T10:35:55.439Z,4.95
2022-10-25T10:37:14.353Z,6.53
2022-10-25T10:38:28.620Z,4.20
2022-10-25T10:39:25.203Z,6.40
2022-10-25T10:40:22.922Z,5.97
2022-10-25T10:41:29.489Z,6.32
2022-10-25T10:42:42.693Z,5.88
2022-10-25T10:43:39.952Z,6.05
2022-10-25T10:44:36.511Z,6.35
2022-10-25T10:45:33.989Z,7.03
2022-10-25T10:46:30.680Z,6.00
2022-10-25T10:47:35.197Z,6.20
2022-10-25T10:48:36.684Z,5.25
2022-10-25T10:49:42.795Z,6.43
2022-10-25T10:50:42.541Z,5.85
2022-10-25T10:51:44.915Z,6.18
2022-10-25T10:52:46.896Z,5.43
2022-10-25T10:53:43.744Z,4.85
2022-10-25T10:54:47.976Z,4.50
2022-10-25T10:55:53.057Z,5.65
2022-10-25T10:57:03.269Z,4.30
2022-10-25T10:58:19.859Z,5.40
2022-10-25T10:59:33.812Z,5.57
2022-10-25T11:00:33.219Z,5.40
2022-10-25T11:01:33.594Z,5.05
2022-10-25T11:02:40.973Z,5.25
2022-10-25T11:03:48.685Z,4.25
2022-10-25T11:04:56.756Z,4.40
2022-10-25T11:06:00.453Z,5.63
2022-10-25T11:07:14.244Z,4.28
2022-10-25T11:08:10.799Z,4.18
2022-10-25T11:09:10.189Z,4.47
2022-10-25T11:10:15.617Z,5.25
2022-10-25T11:11:21.331Z,5.05
2022-10-25T11:12:18.860Z,4.47
2022-10-25T11:13:19.812Z,5.47
2022-10-25T11:14:17.876Z,6.22
2022-10-25T11:15:15.077Z,5.90
2022-10-25T11:16:49.375Z,5.50
2022-10-25T11:18:57.222Z,4.32
2022-10-25T11:20:07.899Z,5.60
2022-10-25T11:21:21.491Z,5.07
2022-10-25T11:23:13.138Z,4.28
2022-10-25T11:24:28.399Z,5.28
2022-10-25T11:25:27.823Z,4.82
2022-10-25T11:26:50.450Z,5.07
2022-10-25T11:27:52.070Z,6.82
2022-10-25T11:29:15.865Z,4.07
2022-10-25T11:30:23.844Z,5.72
2022-10-25T11:32:02.023Z,4.57
2022-10-25T11:33:07.579Z,4.32
2022-10-25T11:34:57.949Z,5.32
2022-10-25T11:36:06.490Z,5.78
2022-10-25T11:37:13.600Z,5.35
2022-10-25T11:38:10.122Z,5.03
2022-10-25T11:39:28.763Z,6.03
2022-10-25T11:40:54.767Z,5.93
2022-10-25T11:41:56.975Z,4.35
2022-10-25T11:43:10.434Z,3.88
2022-10-25T11:44:39.796Z,5.10
2022-10-25T11:45:43.063Z,5.28
2022-10-25T11:46:57.390Z,5.38
2022-10-25T11:48:17.227Z,5.65
2022-10-25T11:49:57.176Z,4.88
2022-10-25T11:51:24.593Z,5.40
2022-10-25T11:53:18.452Z,4.43
2022-10-25T11:54:41.002Z,4.35
2022-10-25T11:55:59.194Z,5.03
2022-10-25T11:57:14.074Z,5.13
2022-10-25T11:58:46.156Z,5.07
2022-10-25T11:59:48.824Z,4.50
2022-10-25T12:00:51.115Z,6.10
2022-10-25T12:02:11.857Z,5.32
2022-10-25T12:03:20.586Z,5.43
2022-10-25T12:04:48.249Z,4.95
2022-10-25T12:06:03.487Z,3.72
2022-10-25T12:07:17.859Z,4.65
2022-10-25T12:08:49.046Z,5.20
2022-10-25T12:10:03.814Z,4.95
2022-10-25T12:11:15.117Z,4.57
2022-10-25T12:12:19.037Z,5.45
2022-10-25T12:13:33.254Z,6.28
2022-10-25T12:14:36.372Z,4.70
2022-10-25T12:15:41.077Z,5.28
2022-10-25T12:16:38.666Z,5.43
2022-10-25T12:17:35.607Z,4.90
2022-10-25T12:18:37.069Z,4.70
2022-10-25T12:19:45.311Z,4.47
2022-10-25T12:20:45.437Z,3.63
2022-10-25T12:21:47.995Z,5.20
2022-10-25T12:22:47.875Z,5.57
2022-10-25T12:23:49.434Z,5.38
2022-10-25T12:24:59.893Z,5.70
2022-10-25T12:26:10.710Z,5.32
2022-10-25T12:27:10.482Z,5.97
2022-10-25T12:28:37.978Z,5.40
2022-10-25T12:29:42.109Z,5.10
2022-10-25T12:30:41.331Z,6.15
2022-10-25T12:31:45.902Z,5.07
2022-10-25T12:33:00.246Z,5.65
2022-10-25T12:34:04.471Z,6.63
2022-10-25T12:35:05.073Z,4.97
2022-10-25T12:36:10.633Z,5.45
2022-10-25T12:37:16.042Z,5.82
2022-10-25T12:38:18.606Z,6.72
2022-10-25T12:39:32.181Z,5.07
2022-10-25T12:40:29.472Z,4.90
2022-10-25T12:41:31.462Z,6.00
2022-10-25T12:42:51.677Z,6.00
2022-10-25T12:44:14.541Z,5.10
2022-10-25T12:45:23.284Z,3.83
2022-10-25T12:46:32.721Z,3.70
2022-10-25T12:47:55.604Z,5.05
2022-10-25T12:48:58.371Z,5.50
2022-10-25T12:50:01.318Z,4.72
2022-10-25T12:51:15.168Z,4.15
2022-10-25T12:52:22.462Z,5.20
2022-10-25T12:53:49.894Z,5.35
2022-10-25T12:54:56.091Z,4.47
2022-10-25T12:56:28.569Z,6.03
2022-10-25T12:57:47.592Z,5.35
2022-10-25T12:59:10.431Z,4.53
2022-10-25T13:01:30.205Z,3.75
2022-10-25T13:02:45.177Z,3.92
2022-10-25T13:04:11.170Z,4.22
2022-10-25T13:05:33.558Z,4.35
2022-10-25T13:06:34.698Z,5.05
2022-10-25T13:07:34.792Z,4.40
2022-10-25T13:08:32.442Z,3.88
2022-10-25T13:09:34.121Z,4.55
2022-10-25T13:10:41.744Z,4.90
2022-10-25T13:11:43.118Z,4.10
2022-10-25T13:12:39.891Z,4.45
2022-10-25T13:13:40.135Z,3.85
2022-10-25T13:14:46.578Z,3.75
2022-10-25T13:16:01.302Z,4.78
2022-10-25T13:17:16.267Z,4.85
2022-10-25T13:18:44.788Z,5.32
2022-10-25T13:20:00.805Z,4.65
2022-10-25T13:20:58.213Z,4.13
2022-10-25T13:21:54.782Z,4.88
2022-10-25T13:22:51.624Z,4.40
2022-10-25T13:23:59.916Z,3.65
2022-10-25T13:25:31.870Z,3.47
2022-10-25T13:26:32.061Z,4.80
2022-10-25T13:27:30.989Z,4.43
2022-10-25T13:28:35.275Z,3.70
2022-10-25T13:30:03.509Z,4.35
2022-10-25T13:31:43.902Z,3.97
2022-10-25T13:32:42.399Z,3.40
2022-10-25T13:33:39.022Z,4.38
2022-10-25T13:34:36.317Z,3.35
2022-10-25T13:35:38.920Z,4.32
2022-10-25T13:36:52.432Z,4.00
2022-10-25T13:38:09.386Z,3.92
2022-10-25T13:39:07.084Z,4.18
2022-10-25T13:40:25.935Z,3.70
2022-10-25T13:41:25.242Z,4.72
2022-10-25T13:42:43.829Z,4.20
2022-10-25T13:44:19.859Z,4.65
2022-10-25T13:45:33.558Z,4.10
2022-10-25T13:46:36.489Z,4.45
2022-10-25T13:47:42.614Z,3.80
2022-10-25T13:48:40.936Z,3.63
2022-10-25T13:49:48.257Z,3.08
2022-10-25T13:50:53.295Z,4.90
2022-10-25T13:51:50.166Z,3.60
2022-10-25T13:53:21.172Z,3.50
2022-10-25T13:54:17.840Z,4.55
2022-10-25T13:55:16.285Z,3.88
2022-10-25T13:56:16.214Z,4.40
2022-10-25T13:57:50.474Z,4.07
2022-10-25T13:59:50.750Z,4.18
2022-10-25T14:00:52.286Z,3.33
2022-10-25T14:01:53.388Z,4.05